createdAt,value
2018-05-12T00:02:20.539Z,6.70
2018-05-12T00:04:48.760Z,6.13
2018-05-12T00:07:17.271Z,6.57
2018-05-12T00:09:45.507Z,6.50
2018-05-12T00:12:13.903Z,6.57
2018-05-12T00:14:42.396Z,6.00
2018-05-12T00:17:10.780Z,6.00
2018-05-12T00:19:39.173Z,6.33
2018-05-12T00:22:07.534Z,6.57
2018-05-12T00:24:35.746Z,6.23
2018-05-12T00:27:04.283Z,5.97
2018-05-12T00:29:33.367Z,6.10
2018-05-12T00:32:01.604Z,6.27
2018-05-12T00:34:30.043Z,6.53
2018-05-12T00:36:58.304Z,6.03
2018-05-12T00:39:26.518Z,5.60
2018-05-12T00:41:54.868Z,6.50
2018-05-12T00:44:23.799Z,6.17
2018-05-12T00:46:52.169Z,6.07
2018-05-12T00:49:20.487Z,6.30
2018-05-12T00:51:48.883Z,6.80
2018-05-12T00:54:17.243Z,6.00
2018-05-12T00:56:45.751Z,5.93
2018-05-12T00:59:14.139Z,6.30
2018-05-12T01:01:42.395Z,6.10
2018-05-12T01:04:10.756Z,6.10
2018-05-12T01:06:38.991Z,5.73
2018-05-12T01:09:07.239Z,6.07
2018-05-12T01:11:35.483Z,6.07
2018-05-12T01:14:03.707Z,6.00
2018-05-12T01:16:32.034Z,5.63
2018-05-12T01:19:00.442Z,5.63
2018-05-12T01:21:28.717Z,5.83
2018-05-12T01:23:56.951Z,5.80
2018-05-12T01:26:25.242Z,6.33
2018-05-12T01:28:53.751Z,5.70
2018-05-12T01:31:22.036Z,6.13
2018-05-12T01:33:51.419Z,5.83
2018-05-12T01:36:20.596Z,5.50
2018-05-12T01:38:49.110Z,6.27
2018-05-12T01:41:17.324Z,5.83
2018-05-12T01:43:45.559Z,6.23
2018-05-12T01:46:13.835Z,5.20
2018-05-12T01:48:42.199Z,5.70
2018-05-12T01:51:10.410Z,5.97
2018-05-12T01:53:38.659Z,5.90
2018-05-12T01:56:07.147Z,5.77
2018-05-12T01:58:35.443Z,5.73
2018-05-12T02:01:03.657Z,5.77
2018-05-12T02:03:31.895Z,6.03
2018-05-12T02:06:00.110Z,5.57
2018-05-12T02:08:28.351Z,5.53
2018-05-12T02:10:56.570Z,5.93
2018-05-12T02:13:25.791Z,5.93
2018-05-12T02:15:54.171Z,5.67
2018-05-12T02:18:22.479Z,5.50
2018-05-12T02:20:51.206Z,5.73
2018-05-12T02:23:19.443Z,5.40
2018-05-12T02:25:47.665Z,6.40
2018-05-12T02:28:15.999Z,5.77
2018-05-12T02:30:44.310Z,5.40
2018-05-12T02:33:12.707Z,5.30
2018-05-12T02:35:41.199Z,5.63
2018-05-12T02:38:09.462Z,5.40
2018-05-12T02:40:37.859Z,5.43
2018-05-12T02:43:06.335Z,5.20
2018-05-12T02:45:34.613Z,5.63
2018-05-12T02:48:03.024Z,5.37
2018-05-12T02:50:31.243Z,5.37
2018-05-12T02:52:59.459Z,5.27
2018-05-12T02:55:27.799Z,5.80
2018-05-12T02:57:56.169Z,5.60
2018-05-12T03:00:25.292Z,5.07
2018-05-12T03:02:53.575Z,5.47
2018-05-12T03:05:21.827Z,5.10
2018-05-12T03:07:50.039Z,5.33
2018-05-12T03:10:18.575Z,5.37
2018-05-12T03:12:46.875Z,5.10
2018-05-12T03:15:15.795Z,5.20
2018-05-12T03:17:44.110Z,5.13
2018-05-12T03:20:12.353Z,5.20
2018-05-12T03:22:40.567Z,5.10
2018-05-12T03:25:08.807Z,4.60
2018-05-12T03:27:37.150Z,5.53
2018-05-12T03:30:05.387Z,5.40
2018-05-12T03:32:33.603Z,5.07
2018-05-12T03:35:01.844Z,5.47
2018-05-12T03:37:30.059Z,5.40
2018-05-12T03:39:58.294Z,5.40
2018-05-12T03:42:26.518Z,5.40
2018-05-12T03:44:54.735Z,5.33
2018-05-12T03:47:22.975Z,5.17
2018-05-12T03:49:52.218Z,5.40
2018-05-12T03:52:21.223Z,5.27
2018-05-12T03:54:50.202Z,4.80
2018-05-12T03:57:18.439Z,5.43
2018-05-12T03:59:46.855Z,5.17
2018-05-12T04:02:15.369Z,5.10
2018-05-12T04:04:55.490Z,5.03
2018-05-12T04:07:35.785Z,4.77
2018-05-12T04:10:15.846Z,5.47
2018-05-12T04:12:44.097Z,5.23
2018-05-12T04:15:12.590Z,5.33
2018-05-12T04:17:40.831Z,5.37
2018-05-12T04:20:09.347Z,5.00
2018-05-12T04:22:37.723Z,4.73
2018-05-12T04:25:05.938Z,4.97
2018-05-12T04:27:34.175Z,4.70
2018-05-12T04:30:03.215Z,4.77
2018-05-12T04:32:31.464Z,4.60
2018-05-12T04:34:59.683Z,5.07
2018-05-12T04:37:27.900Z,4.80
2018-05-12T04:39:56.247Z,4.87
2018-05-12T04:42:24.651Z,4.87
2018-05-12T04:44:53.050Z,4.90
2018-05-12T04:47:21.407Z,5.13
2018-05-12T04:49:49.808Z,5.67
2018-05-12T04:52:18.130Z,4.77
2018-05-12T04:54:46.375Z,5.10
2018-05-12T04:57:14.595Z,4.60
2018-05-12T04:59:42.982Z,5.00
2018-05-12T05:02:11.193Z,4.73
2018-05-12T05:04:39.544Z,4.97
2018-05-12T05:07:07.790Z,5.73
2018-05-12T05:09:36.135Z,5.90
2018-05-12T05:12:04.379Z,9.33
2018-05-12T05:14:32.680Z,10.93
2018-05-12T05:17:00.990Z,12.03
2018-05-12T05:19:29.243Z,12.03
2018-05-12T05:21:57.488Z,13.90
2018-05-12T05:24:26.270Z,12.33
2018-05-12T05:26:54.549Z,11.90
2018-05-12T05:29:22.790Z,11.53
2018-05-12T05:31:51.019Z,11.00
2018-05-12T05:34:19.362Z,10.53
2018-05-12T05:36:47.719Z,10.67
2018-05-12T05:39:16.139Z,10.27
2018-05-12T05:41:44.433Z,9.83
2018-05-12T05:44:12.590Z,10.00
2018-05-12T05:46:40.826Z,9.60
2018-05-12T05:49:09.138Z,9.50
2018-05-12T05:51:37.377Z,14.33
2018-05-12T05:54:06.562Z,21.93
2018-05-12T05:56:34.782Z,14.67
2018-05-12T05:59:03.031Z,15.50
2018-05-12T06:01:31.270Z,13.27
2018-05-12T06:03:59.600Z,13.87
2018-05-12T06:06:27.816Z,13.13
2018-05-12T06:08:56.367Z,12.53
2018-05-12T06:11:24.895Z,12.30
2018-05-12T06:13:53.742Z,12.30
2018-05-12T06:16:22.102Z,13.27
2018-05-12T06:18:50.499Z,12.23
2018-05-12T06:21:18.766Z,12.60
2018-05-12T06:23:47.106Z,11.93
2018-05-12T06:26:16.103Z,12.93
2018-05-12T06:28:44.347Z,13.20
2018-05-12T06:31:12.659Z,13.93
2018-05-12T06:33:40.894Z,12.60
2018-05-12T06:36:09.118Z,12.90
2018-05-12T06:38:37.358Z,13.27
2018-05-12T06:41:05.595Z,12.20
2018-05-12T06:43:33.987Z,12.30
2018-05-12T06:46:02.336Z,11.03
2018-05-12T06:48:30.719Z,11.43
2018-05-12T06:50:58.952Z,11.07
2018-05-12T06:53:28.099Z,13.57
2018-05-12T06:55:56.466Z,13.97
2018-05-12T06:58:24.790Z,17.27
2018-05-12T07:00:55.346Z,14.37
2018-05-12T07:03:23.582Z,20.50
2018-05-12T07:05:51.806Z,21.13
2018-05-12T07:08:20.808Z,17.20
2018-05-12T07:10:49.806Z,19.30
2018-05-12T07:13:18.060Z,16.00
2018-05-12T07:15:46.288Z,15.97
2018-05-12T07:18:14.622Z,13.93
2018-05-12T07:20:42.841Z,13.83
2018-05-12T07:23:11.087Z,15.27
2018-05-12T07:25:39.315Z,17.30
2018-05-12T07:28:07.559Z,18.17
2018-05-12T07:30:35.786Z,16.33
2018-05-12T07:33:04.108Z,14.23
2018-05-12T07:35:32.644Z,14.33
2018-05-12T07:38:00.839Z,15.03
2018-05-12T07:40:29.093Z,14.33
2018-05-12T07:42:57.365Z,14.57
2018-05-12T07:45:25.688Z,13.73
2018-05-12T07:47:54.678Z,13.83
2018-05-12T07:50:22.922Z,13.30
2018-05-12T07:52:51.147Z,12.10
2018-05-12T07:55:19.382Z,12.63
2018-05-12T07:57:47.626Z,12.83
2018-05-12T08:00:15.870Z,14.20
2018-05-12T08:02:44.097Z,12.70
2018-05-12T08:05:12.344Z,12.10
2018-05-12T08:07:40.571Z,11.87
2018-05-12T08:10:09.683Z,11.90
2018-05-12T08:12:38.167Z,11.80
2018-05-12T08:15:06.414Z,13.40
2018-05-12T08:17:34.910Z,13.10
2018-05-12T08:20:03.159Z,13.10
2018-05-12T08:22:31.407Z,12.17
2018-05-12T08:24:59.640Z,11.27
2018-05-12T08:27:28.620Z,11.03
2018-05-12T08:29:56.984Z,10.40
2018-05-12T08:32:25.408Z,9.83
2018-05-12T08:34:53.655Z,21.10
2018-05-12T08:37:21.908Z,13.70
2018-05-12T08:39:50.900Z,13.37
2018-05-12T08:42:19.931Z,13.33
2018-05-12T08:44:48.174Z,16.80
2018-05-12T08:47:16.604Z,15.83
2018-05-12T08:49:44.826Z,15.23
2018-05-12T08:52:13.083Z,15.17
2018-05-12T08:54:41.322Z,14.80
2018-05-12T08:57:09.555Z,14.47
2018-05-12T08:59:38.571Z,14.77
2018-05-12T09:02:06.828Z,13.70
2018-05-12T09:04:35.463Z,12.73
2018-05-12T09:07:03.876Z,24.57
2018-05-12T09:09:32.127Z,23.83
2018-05-12T09:12:00.354Z,19.37
2018-05-12T09:14:29.767Z,21.93
2018-05-12T09:16:58.007Z,17.77
2018-05-12T09:19:26.412Z,17.17
2018-05-12T09:21:55.516Z,20.60
2018-05-12T09:24:23.853Z,20.53
2018-05-12T09:26:52.171Z,22.97
2018-05-12T09:29:20.642Z,25.73
2018-05-12T09:31:48.983Z,23.67
2018-05-12T09:34:17.335Z,30.67
2018-05-12T09:36:45.655Z,25.27
2018-05-12T09:39:13.903Z,26.13
2018-05-12T09:41:42.239Z,19.93
2018-05-12T09:44:10.614Z,16.93
2018-05-12T09:46:38.847Z,15.60
2018-05-12T09:49:07.081Z,18.27
2018-05-12T09:51:39.019Z,24.23
2018-05-12T09:54:07.386Z,19.50
2018-05-12T09:56:35.887Z,19.27
2018-05-12T09:59:04.146Z,18.00
2018-05-12T10:01:32.647Z,26.07
2018-05-12T10:04:01.005Z,23.10
2018-05-12T10:06:30.563Z,21.07
2018-05-12T10:08:58.930Z,23.03
2018-05-12T10:11:27.159Z,21.47
2018-05-12T10:13:56.071Z,16.27
2018-05-12T10:16:24.342Z,13.87
2018-05-12T10:18:52.714Z,13.43
2018-05-12T10:21:20.938Z,10.73
2018-05-12T10:23:49.287Z,10.13
2018-05-12T10:26:17.593Z,12.23
2018-05-12T10:28:45.815Z,13.03
2018-05-12T10:31:14.053Z,11.43
2018-05-12T10:33:42.411Z,11.50
2018-05-12T10:36:10.642Z,11.87
2018-05-12T10:38:38.891Z,10.03
2018-05-12T10:41:07.221Z,10.10
2018-05-12T10:43:35.686Z,9.17
2018-05-12T10:46:04.068Z,9.40
2018-05-12T10:48:32.310Z,16.77
2018-05-12T10:51:00.542Z,19.07
2018-05-12T10:53:29.250Z,15.67
2018-05-12T10:55:57.588Z,13.50
2018-05-12T10:58:25.963Z,12.77
2018-05-12T11:00:54.244Z,14.13
2018-05-12T11:03:22.592Z,12.33
2018-05-12T11:05:50.839Z,13.63
2018-05-12T11:08:19.058Z,15.70
2018-05-12T11:10:48.103Z,22.30
2018-05-12T11:13:16.395Z,19.77
2018-05-12T11:15:44.646Z,20.10
2018-05-12T11:18:12.927Z,23.20
2018-05-12T11:20:41.622Z,47.50
2018-05-12T11:23:09.928Z,33.73
2018-05-12T11:25:38.367Z,31.47
2018-05-12T11:28:06.813Z,33.53
2018-05-12T11:30:35.183Z,30.43
2018-05-12T11:33:03.471Z,30.97
2018-05-12T11:35:31.726Z,28.23
2018-05-12T11:37:59.963Z,31.23
2018-05-12T11:40:28.215Z,26.97
2018-05-12T11:42:56.848Z,27.03
2018-05-12T11:45:25.087Z,28.00
2018-05-12T11:47:53.432Z,25.57
2018-05-12T11:50:21.799Z,27.50
2018-05-12T11:52:50.194Z,27.20
2018-05-12T11:55:18.444Z,25.23
2018-05-12T11:57:46.671Z,26.97
2018-05-12T12:00:14.914Z,26.20
2018-05-12T12:02:43.146Z,25.20
2018-05-12T12:05:11.496Z,25.77
2018-05-12T12:07:39.718Z,24.70
2018-05-12T12:10:07.969Z,25.83
2018-05-12T12:12:36.199Z,24.03
2018-05-12T12:15:04.507Z,23.77
2018-05-12T12:17:32.741Z,23.00
2018-05-12T12:20:01.115Z,23.80
2018-05-12T12:22:30.523Z,22.17
2018-05-12T12:24:58.774Z,22.17
2018-05-12T12:27:27.184Z,23.33
2018-05-12T12:29:55.431Z,22.83
2018-05-12T12:32:23.655Z,23.10
2018-05-12T12:34:51.902Z,21.60
2018-05-12T12:37:20.132Z,21.70
2018-05-12T12:39:48.554Z,21.13
2018-05-12T12:42:16.779Z,21.27
2018-05-12T12:44:45.203Z,20.63
2018-05-12T12:47:13.558Z,22.00
2018-05-12T12:49:41.875Z,20.27
2018-05-12T12:52:10.144Z,19.63
2018-05-12T12:54:38.423Z,20.27
2018-05-12T12:57:06.790Z,20.43
2018-05-12T12:59:35.148Z,19.57
2018-05-12T13:02:03.395Z,21.50
2018-05-12T13:04:31.999Z,20.60
2018-05-12T13:07:00.415Z,20.70
2018-05-12T13:09:28.663Z,20.23
2018-05-12T13:11:57.054Z,20.00
2018-05-12T13:14:25.287Z,20.67
2018-05-12T13:16:53.530Z,19.30
2018-05-12T13:19:21.767Z,19.57
2018-05-12T13:21:50.074Z,21.33
2018-05-12T13:24:18.456Z,19.57
2018-05-12T13:26:46.818Z,19.67
2018-05-12T13:29:15.111Z,18.90
2018-05-12T13:31:43.470Z,19.30
2018-05-12T13:34:11.863Z,18.23
2018-05-12T13:36:40.339Z,19.60
2018-05-12T13:39:08.655Z,18.17
2018-05-12T13:41:36.987Z,18.47
2018-05-12T13:44:05.210Z,18.70
2018-05-12T13:46:33.547Z,18.80
2018-05-12T13:49:01.796Z,19.47
2018-05-12T13:51:30.303Z,18.40
2018-05-12T13:53:58.583Z,17.53
2018-05-12T13:56:26.835Z,18.37
2018-05-12T13:58:55.063Z,19.10
2018-05-12T14:01:23.307Z,18.40
2018-05-12T14:03:51.551Z,17.97
2018-05-12T14:06:20.570Z,17.97
2018-05-12T14:08:48.950Z,18.40
2018-05-12T14:11:17.199Z,17.17
2018-05-12T14:13:45.611Z,16.43
2018-05-12T14:16:14.029Z,16.27
2018-05-12T14:18:42.468Z,17.20
2018-05-12T14:21:10.775Z,17.33
2018-05-12T14:23:39.008Z,15.63
2018-05-12T14:26:07.256Z,16.87
2018-05-12T14:28:35.574Z,16.13
2018-05-12T14:31:03.943Z,17.60
2018-05-12T14:33:32.979Z,17.43
2018-05-12T14:36:01.327Z,17.10
2018-05-12T14:38:29.703Z,16.67
2018-05-12T14:40:58.775Z,16.53
2018-05-12T14:43:27.987Z,16.33
2018-05-12T14:45:56.342Z,16.07
2018-05-12T14:48:24.852Z,15.50
2018-05-12T14:50:53.080Z,16.20
2018-05-12T14:53:21.330Z,16.10
2018-05-12T14:55:49.560Z,15.40
2018-05-12T14:58:17.818Z,15.33
2018-05-12T15:00:46.047Z,14.97
2018-05-12T15:03:14.294Z,14.80
2018-05-12T15:05:42.519Z,15.83
2018-05-12T15:08:10.847Z,14.97
2018-05-12T15:10:39.335Z,15.13
2018-05-12T15:13:07.715Z,15.27
2018-05-12T15:15:35.947Z,15.57
2018-05-12T15:18:04.195Z,15.00
2018-05-12T15:20:32.986Z,13.93
2018-05-12T15:23:01.234Z,15.13
2018-05-12T15:25:29.463Z,14.77
2018-05-12T15:27:57.875Z,14.23
2018-05-12T15:30:30.327Z,14.93
2018-05-12T15:33:04.274Z,13.30
2018-05-12T15:35:33.511Z,14.97
2018-05-12T15:38:03.668Z,14.53
2018-05-12T15:40:35.709Z,15.53
2018-05-12T15:43:05.704Z,14.47
2018-05-12T15:45:35.755Z,14.03
2018-05-12T15:48:07.891Z,13.97
2018-05-12T15:50:39.669Z,14.27
2018-05-12T15:53:10.334Z,14.63
2018-05-12T15:55:41.008Z,14.33
2018-05-12T15:58:10.679Z,13.77
2018-05-12T16:00:40.588Z,14.50
2018-05-12T16:03:09.868Z,13.80
2018-05-12T16:05:43.015Z,14.33
2018-05-12T16:08:12.211Z,13.70
2018-05-12T16:11:03.871Z,13.77
2018-05-12T16:13:35.111Z,14.20
2018-05-12T16:16:06.751Z,13.60
2018-05-12T16:18:40.984Z,13.13
2018-05-12T16:21:12.312Z,14.30
2018-05-12T16:23:44.070Z,12.77
2018-05-12T16:28:53.773Z,14.73
2018-05-12T16:31:26.145Z,14.20
2018-05-12T16:34:14.172Z,13.17
2018-05-12T16:36:56.104Z,13.83
2018-05-12T16:39:33.939Z,13.37
2018-05-12T16:42:10.448Z,12.87
2018-05-12T16:50:01.677Z,12.57
2018-05-12T16:52:39.422Z,13.27
2018-05-12T16:55:19.844Z,13.03
2018-05-12T16:57:55.080Z,13.17
2018-05-12T17:04:45.492Z,13.80
2018-05-12T17:07:32.350Z,13.00
2018-05-12T17:22:51.882Z,11.57
2018-05-12T17:25:39.207Z,12.77
2018-05-12T17:28:45.626Z,12.73
2018-05-12T17:31:48.542Z,13.20
2018-05-12T17:34:36.488Z,12.80
